Time;durP1;ratioP1;P1;durP2;ratioP2;P2;SDS_P1;SDS_P2;PMS_P1;PMS_P2;Temp;Humidity;BMP_temperature;BMP_pressure;BME280_temperature;BME280_humidity;BME280_pressure;Samples;Min_cycle;Max_cycle;Signal;HPM_P1;HPM_P2
2023/05/10 00:02:06;;;;;;;4.50;3.53;;;;;15.60;95676.00;;;;8316769;28;20316;-67
2023/05/10 00:06:09;;;;;;;7.15;3.60;;;;;15.60;95674.00;;;;8315289;28;20216;-66
2023/05/10 00:10:13;;;;;;;4.28;3.70;;;;;15.60;95667.00;;;;8320084;28;20729;-66
2023/05/10 00:14:19;;;;;;;4.50;3.08;;;;;15.50;95665.00;;;;8319343;28;20608;-66
2023/05/10 00:18:26;;;;;;;6.95;4.20;;;;;15.50;95663.00;;;;8312414;28;20198;-66
2023/05/10 00:22:33;;;;;;;9.23;3.55;;;;;15.40;95655.00;;;;8316427;28;20797;-66
2023/05/10 00:26:37;;;;;;;6.10;3.90;;;;;15.40;95648.00;;;;8314039;28;20254;-66
2023/05/10 00:30:43;;;;;;;5.40;4.15;;;;;15.40;95657.00;;;;8314203;28;20240;-67
2023/05/10 00:34:46;;;;;;;4.82;3.63;;;;;15.40;95658.00;;;;8316570;28;20267;-66
2023/05/10 00:38:53;;;;;;;4.78;3.72;;;;;15.40;95657.00;;;;8319028;28;20895;-66
2023/05/10 00:43:01;;;;;;;5.10;3.85;;;;;15.40;95654.00;;;;8312277;28;20312;-67
2023/05/10 00:47:15;;;;;;;4.85;3.75;;;;;15.40;95649.00;;;;8289696;28;20202;-66
2023/05/10 00:51:18;;;;;;;4.57;4.03;;;;;15.30;95653.00;;;;8317745;28;20263;-66
2023/05/10 00:55:23;;;;;;;4.43;3.83;;;;;15.30;95658.00;;;;8304583;28;20680;-66
2023/05/10 00:59:28;;;;;;;6.53;4.30;;;;;15.20;95653.00;;;;8321273;28;20205;-67
2023/05/10 01:03:31;;;;;;;5.95;3.83;;;;;15.20;95653.00;;;;8310860;28;20698;-66
2023/05/10 01:07:38;;;;;;;5.55;4.60;;;;;15.10;95653.00;;;;8336703;28;20201;-67
2023/05/10 01:11:41;;;;;;;7.93;4.65;;;;;14.90;95652.00;;;;8322761;28;20699;-66
2023/05/10 01:15:47;;;;;;;6.30;5.10;;;;;14.70;95649.00;;;;8319035;28;20206;-67
2023/05/10 01:19:56;;;;;;;8.05;4.50;;;;;14.60;95653.00;;;;8329204;28;20200;-66
2023/05/10 01:24:22;;;;;;;7.10;4.80;;;;;14.40;95653.00;;;;8329076;28;20244;-66
2023/05/10 01:28:46;;;;;;;5.20;4.72;;;;;14.30;95663.00;;;;8337112;28;20270;-66
2023/05/10 01:32:58;;;;;;;6.07;5.32;;;;;14.20;95666.00;;;;8316555;28;20209;-65
2023/05/10 01:37:08;;;;;;;5.68;5.07;;;;;14.20;95664.00;;;;8328308;28;20247;-66
2023/05/10 01:41:18;;;;;;;7.40;5.40;;;;;14.20;95664.00;;;;8325718;28;20201;-67
2023/05/10 01:45:28;;;;;;;5.97;5.38;;;;;14.20;95668.00;;;;8330552;28;22313;-67
2023/05/10 01:49:40;;;;;;;7.95;5.15;;;;;14.30;95672.00;;;;8322822;28;20224;-67
2023/05/10 01:53:47;;;;;;;6.88;4.78;;;;;14.20;95666.00;;;;8330972;28;20913;-67
2023/05/10 01:57:58;;;;;;;8.43;5.15;;;;;14.20;95660.00;;;;8322681;28;20201;-67
2023/05/10 02:02:04;;;;;;;7.43;5.28;;;;;14.20;95663.00;;;;8317283;28;20232;-66
2023/05/10 02:06:13;;;;;;;9.02;5.10;;;;;14.20;95664.00;;;;8315465;28;20194;-67
2023/05/10 02:10:20;;;;;;;6.93;4.93;;;;;14.20;95666.00;;;;8325808;28;20212;-66
2023/05/10 02:14:25;;;;;;;7.13;5.35;;;;;14.20;95659.00;;;;8310198;28;20198;-66
2023/05/10 02:18:28;;;;;;;6.93;5.72;;;;;14.20;95663.00;;;;8308052;28;20197;-66
2023/05/10 02:22:33;;;;;;;7.13;5.63;;;;;14.20;95662.00;;;;8318272;28;20622;-67
2023/05/10 02:26:39;;;;;;;6.72;5.20;;;;;14.20;95658.00;;;;8322417;28;20204;-67
2023/05/10 02:30:44;;;;;;;9.00;5.60;;;;;14.00;95648.00;;;;8322804;28;20678;-66
2023/05/10 02:34:51;;;;;;;8.75;5.15;;;;;13.90;95652.00;;;;8327435;28;20204;-67
2023/05/10 02:38:57;;;;;;;12.15;5.80;;;;;14.00;95655.00;;;;8306169;28;20228;-66
2023/05/10 02:43:02;;;;;;;10.57;5.82;;;;;14.00;95646.00;;;;8312220;28;20204;-69
2023/05/10 02:47:07;;;;;;;7.18;6.38;;;;;14.00;95648.00;;;;8306594;28;20208;-67
2023/05/10 02:51:17;;;;;;;10.93;6.22;;;;;13.90;95644.00;;;;8320272;28;20244;-68
2023/05/10 02:55:32;;;;;;;10.90;6.18;;;;;13.90;95644.00;;;;8315764;28;20733;-67
2023/05/10 02:59:40;;;;;;;7.40;6.00;;;;;13.90;95646.00;;;;8317541;28;20209;-69
2023/05/10 03:03:43;;;;;;;10.18;5.95;;;;;13.90;95649.00;;;;8353717;23;20230;-70
2023/05/10 03:07:49;;;;;;;7.20;6.35;;;;;13.80;95652.00;;;;8308010;28;20205;-71
2023/05/10 03:12:01;;;;;;;10.45;7.22;;;;;13.80;95649.00;;;;8344231;28;20232;-70
2023/05/10 03:16:11;;;;;;;9.63;7.07;;;;;13.80;95654.00;;;;8317102;28;20204;-70
2023/05/10 03:20:25;;;;;;;9.85;6.53;;;;;13.70;95652.00;;;;8310243;28;20215;-71
2023/05/10 03:24:29;;;;;;;10.43;6.93;;;;;13.70;95648.00;;;;8319175;28;20261;-70
2023/05/10 03:28:35;;;;;;;10.30;6.85;;;;;13.60;95654.00;;;;8316747;28;20640;-71
2023/05/10 03:32:39;;;;;;;12.43;7.70;;;;;13.60;95657.00;;;;8314165;28;20686;-72
2023/05/10 03:36:44;;;;;;;14.65;7.13;;;;;13.60;95661.00;;;;8317007;28;20835;-72
2023/05/10 03:40:50;;;;;;;14.60;7.28;;;;;13.50;95658.00;;;;8342701;28;20210;-70
2023/05/10 03:44:55;;;;;;;12.98;6.93;;;;;13.30;95658.00;;;;8317085;28;20202;-72
2023/05/10 03:49:00;;;;;;;11.35;7.20;;;;;13.20;95670.00;;;;8323223;28;20722;-70
2023/05/10 03:53:04;;;;;;;12.48;8.48;;;;;13.10;95664.00;;;;8307796;28;20237;-69
2023/05/10 03:57:08;;;;;;;13.15;8.23;;;;;13.10;95663.00;;;;8314172;28;20199;-69
2023/05/10 04:01:13;;;;;;;17.75;9.05;;;;;13.10;95667.00;;;;8305996;28;20240;-71
2023/05/10 04:05:17;;;;;;;13.73;8.30;;;;;13.20;95672.00;;;;8295630;28;21695;-72
2023/05/10 04:09:30;;;;;;;14.82;8.90;;;;;13.20;95672.00;;;;8286346;28;20679;-71
2023/05/10 04:13:39;;;;;;;20.70;9.70;;;;;13.30;95674.00;;;;8275530;28;20366;-70
2023/05/10 04:17:45;;;;;;;17.52;9.25;;;;;13.30;95673.00;;;;8303234;28;20235;-71
2023/05/10 04:21:48;;;;;;;16.98;9.55;;;;;13.30;95669.00;;;;8302544;28;20661;-71
2023/05/10 04:25:53;;;;;;;20.25;9.52;;;;;13.30;95669.00;;;;8312825;28;20215;-70
2023/05/10 04:29:56;;;;;;;15.57;9.60;;;;;13.40;95673.00;;;;8318500;28;20264;-70
2023/05/10 04:34:02;;;;;;;14.27;8.68;;;;;13.40;95670.00;;;;8331201;28;20241;-70
2023/05/10 04:38:05;;;;;;;23.13;9.70;;;;;13.50;95676.00;;;;8321372;28;20261;-70
2023/05/10 04:42:11;;;;;;;16.95;9.43;;;;;13.50;95680.00;;;;8321602;28;20689;-71
2023/05/10 04:46:14;;;;;;;22.77;10.05;;;;;13.50;95681.00;;;;8323559;28;20259;-71
2023/05/10 04:50:21;;;;;;;16.88;9.45;;;;;13.40;95688.00;;;;8322138;28;20250;-71
2023/05/10 04:54:29;;;;;;;16.80;9.68;;;;;13.40;95689.00;;;;8313359;28;20196;-70
2023/05/10 04:58:34;;;;;;;17.15;10.68;;;;;13.50;95693.00;;;;8329768;28;20294;-71
2023/05/10 05:02:37;;;;;;;19.30;10.30;;;;;13.50;95697.00;;;;8315431;28;20234;-70
2023/05/10 05:06:42;;;;;;;18.75;10.10;;;;;13.50;95704.00;;;;8319832;28;20199;-71
2023/05/10 05:10:51;;;;;;;17.17;10.73;;;;;13.50;95703.00;;;;8313659;28;20224;-71
2023/05/10 05:14:57;;;;;;;18.05;10.20;;;;;13.60;95703.00;;;;8322124;28;20208;-71
2023/05/10 05:19:02;;;;;;;22.73;10.77;;;;;13.60;95714.00;;;;8315439;28;20201;-70
2023/05/10 05:23:07;;;;;;;18.65;10.70;;;;;13.70;95717.00;;;;8318016;28;20197;-71
2023/05/10 05:27:17;;;;;;;18.50;9.70;;;;;13.80;95721.00;;;;8319317;28;20207;-71
2023/05/10 05:31:20;;;;;;;19.02;10.15;;;;;13.90;95723.00;;;;8312096;28;20290;-71
2023/05/10 05:35:24;;;;;;;22.30;10.48;;;;;14.00;95728.00;;;;8321087;28;20374;-71
2023/05/10 05:39:31;;;;;;;19.33;11.25;;;;;14.20;95730.00;;;;8316555;28;20524;-71
2023/05/10 05:43:34;;;;;;;19.55;9.38;;;;;14.40;95730.00;;;;8316093;28;20199;-70
2023/05/10 05:47:40;;;;;;;14.13;7.85;;;;;14.50;95734.00;;;;8317283;28;20624;-70
2023/05/10 05:51:44;;;;;;;12.32;7.15;;;;;14.30;95734.00;;;;8316441;28;20224;-70
2023/05/10 05:55:59;;;;;;;8.68;5.85;;;;;14.40;95744.00;;;;8308642;28;20261;-71
2023/05/10 06:00:02;;;;;;;3.75;3.38;;;;;14.40;95753.00;;;;8317756;28;20211;-70
2023/05/10 06:04:09;;;;;;;3.75;2.53;;;;;14.50;95756.00;;;;8317042;28;20230;-70
2023/05/10 06:08:12;;;;;;;2.15;2.00;;;;;14.60;95754.00;;;;8327487;28;20222;-68
2023/05/10 06:12:18;;;;;;;1.60;1.45;;;;;14.60;95756.00;;;;8314368;28;20877;-69
2023/05/10 06:16:22;;;;;;;1.67;1.58;;;;;14.80;95768.00;;;;8325862;28;20223;-69
2023/05/10 06:20:31;;;;;;;1.20;1.20;;;;;14.80;95767.00;;;;8320587;28;20297;-68
2023/05/10 06:24:34;;;;;;;1.63;1.52;;;;;14.70;95772.00;;;;8324103;28;20659;-68
2023/05/10 06:28:42;;;;;;;1.48;1.42;;;;;14.70;95775.00;;;;8312389;28;20275;-68
2023/05/10 06:32:46;;;;;;;1.20;1.20;;;;;14.80;95779.00;;;;8333709;28;20235;-69
2023/05/10 06:36:52;;;;;;;1.30;1.30;;;;;14.80;95783.00;;;;8315197;28;20209;-68
2023/05/10 06:40:55;;;;;;;4.22;1.33;;;;;14.80;95788.00;;;;8316100;28;20266;-70
2023/05/10 06:44:59;;;;;;;1.20;1.20;;;;;14.80;95788.00;;;;8312943;28;20208;-69
2023/05/10 06:49:06;;;;;;;1.40;1.30;;;;;14.80;95789.00;;;;8313745;28;20206;-70
2023/05/10 06:53:18;;;;;;;1.15;1.15;;;;;14.80;95797.00;;;;8322042;28;21771;-68
2023/05/10 06:57:21;;;;;;;1.08;1.08;;;;;14.70;95799.00;;;;8315201;28;20657;-70
2023/05/10 07:01:35;;;;;;;1.48;1.48;;;;;14.60;95799.00;;;;8318017;28;20658;-68
2023/05/10 07:05:41;;;;;;;2.08;1.27;;;;;14.70;95809.00;;;;8316616;28;20690;-70
2023/05/10 07:09:44;;;;;;;1.83;1.20;;;;;14.90;95801.00;;;;8318370;28;20579;-69
2023/05/10 07:13:50;;;;;;;1.30;1.30;;;;;15.10;95810.00;;;;8320351;28;20241;-69
2023/05/10 07:17:55;;;;;;;1.42;1.25;;;;;15.40;95818.00;;;;8323559;28;20209;-66
2023/05/10 07:21:58;;;;;;;1.20;1.20;;;;;15.60;95819.00;;;;8314709;28;20207;-67
2023/05/10 07:26:05;;;;;;;1.20;1.20;;;;;15.70;95827.00;;;;8322706;28;20205;-69
2023/05/10 07:30:10;;;;;;;1.30;1.30;;;;;15.90;95826.00;;;;8319168;28;20198;-67
2023/05/10 07:34:14;;;;;;;1.30;1.30;;;;;16.00;95833.00;;;;8317675;28;20220;-68
2023/05/10 07:38:18;;;;;;;1.45;1.40;;;;;16.00;95837.00;;;;8326036;28;20200;-72
2023/05/10 07:42:23;;;;;;;2.30;1.50;;;;;16.10;95831.00;;;;8310529;28;20259;-70
2023/05/10 07:46:26;;;;;;;1.70;1.60;;;;;16.30;95842.00;;;;8315343;28;20205;-74
2023/05/10 07:50:36;;;;;;;1.50;1.45;;;;;16.30;95845.00;;;;8313440;28;20193;-71
2023/05/10 07:54:46;;;;;;;1.48;1.48;;;;;16.50;95843.00;;;;8316669;28;20205;-71
2023/05/10 07:58:56;;;;;;;1.50;1.40;;;;;16.80;95851.00;;;;8311174;28;20248;-67
2023/05/10 08:03:00;;;;;;;2.13;1.50;;;;;17.10;95850.00;;;;8315944;28;20228;-68
2023/05/10 08:07:05;;;;;;;2.38;1.45;;;;;17.30;95856.00;;;;8315387;28;20205;-70
2023/05/10 08:11:08;;;;;;;1.50;1.50;;;;;17.50;95849.00;;;;8316313;28;21690;-70
2023/05/10 08:15:12;;;;;;;4.03;1.67;;;;;17.70;95856.00;;;;8318055;28;20714;-66
2023/05/10 08:19:18;;;;;;;1.88;1.55;;;;;17.90;95864.00;;;;8310392;28;20228;-67
2023/05/10 08:23:23;;;;;;;1.30;1.30;;;;;17.90;95866.00;;;;8314548;28;20194;-69
2023/05/10 08:27:26;;;;;;;1.50;1.50;;;;;18.00;95862.00;;;;8316441;28;20201;-67
2023/05/10 08:31:34;;;;;;;1.70;1.70;;;;;18.20;95867.00;;;;8319665;28;20229;-67
2023/05/10 08:35:38;;;;;;;1.30;1.30;;;;;17.90;95866.00;;;;8316672;28;20201;-68
2023/05/10 08:39:42;;;;;;;1.30;1.30;;;;;17.50;95879.00;;;;8305540;28;20590;-69
2023/05/10 08:43:46;;;;;;;1.30;1.30;;;;;17.00;95878.00;;;;8313463;28;20499;-71
2023/05/10 08:47:50;;;;;;;1.80;1.70;;;;;16.70;95883.00;;;;8316515;28;20193;-68
2023/05/10 08:51:56;;;;;;;1.70;1.40;;;;;16.80;95882.00;;;;8312585;28;20232;-67
2023/05/10 08:56:03;;;;;;;1.92;1.70;;;;;17.10;95884.00;;;;8311133;28;20194;-69
2023/05/10 09:00:08;;;;;;;3.30;1.77;;;;;17.10;95891.00;;;;8314376;28;20214;-68
2023/05/10 09:04:16;;;;;;;3.55;2.00;;;;;17.00;95890.00;;;;8324582;28;20324;-68
2023/05/10 09:08:21;;;;;;;2.05;1.95;;;;;17.40;95887.00;;;;8311431;28;20710;-66
2023/05/10 09:12:28;;;;;;;2.47;1.65;;;;;18.10;95890.00;;;;8312951;28;20264;-68
2023/05/10 09:16:34;;;;;;;1.80;1.70;;;;;18.40;95893.00;;;;8296442;28;21082;-68
2023/05/10 09:20:41;;;;;;;1.70;1.60;;;;;18.40;95898.00;;;;8315229;28;20543;-68
2023/05/10 09:24:47;;;;;;;1.70;1.60;;;;;18.10;95901.00;;;;8314744;28;20251;-67
2023/05/10 09:28:56;;;;;;;2.67;1.58;;;;;17.80;95904.00;;;;8312408;28;20193;-67
2023/05/10 09:33:01;;;;;;;1.50;1.50;;;;;17.60;95908.00;;;;8318560;28;20303;-68
2023/05/10 09:37:07;;;;;;;4.88;1.60;;;;;17.80;95906.00;;;;8322836;28;20221;-67
2023/05/10 09:41:17;;;;;;;1.98;1.48;;;;;18.30;95903.00;;;;8322721;28;20215;-67
2023/05/10 09:45:22;;;;;;;1.58;1.50;;;;;19.80;95909.00;;;;8323832;28;20194;-67
2023/05/10 09:49:29;;;;;;;1.35;1.30;;;;;21.00;95909.00;;;;8313361;28;20197;-68
2023/05/10 09:53:36;;;;;;;2.47;1.63;;;;;21.10;95906.00;;;;8321049;28;20231;-67
2023/05/10 09:57:43;;;;;;;2.05;1.77;;;;;21.50;95907.00;;;;8321709;28;20219;-68
2023/05/10 10:01:52;;;;;;;2.15;1.13;;;;;22.60;95898.00;;;;8319492;28;20196;-67
2023/05/10 10:05:56;;;;;;;1.30;1.30;;;;;23.00;95902.00;;;;8321964;28;20308;-68
2023/05/10 10:10:04;;;;;;;1.60;1.55;;;;;23.00;95891.00;;;;8321720;28;20201;-68
2023/05/10 10:14:07;;;;;;;1.23;1.23;;;;;23.50;95896.00;;;;8317432;28;20348;-66
2023/05/10 10:18:15;;;;;;;2.15;1.20;;;;;23.20;95892.00;;;;8323381;28;20208;-68
2023/05/10 10:22:21;;;;;;;1.05;1.05;;;;;22.30;95896.00;;;;8315519;28;20212;-67
2023/05/10 10:26:24;;;;;;;1.08;1.08;;;;;21.80;95894.00;;;;8322424;28;20206;-69
2023/05/10 10:30:41;;;;;;;0.98;0.98;;;;;21.70;95895.00;;;;8310957;28;21000;-68
2023/05/10 10:34:47;;;;;;;1.05;1.05;;;;;22.00;95884.00;;;;8325115;28;20222;-67
2023/05/10 10:39:03;;;;;;;1.38;1.27;;;;;22.80;95892.00;;;;8313046;28;20192;-69
2023/05/10 10:43:28;;;;;;;1.30;1.30;;;;;23.30;95880.00;;;;8326326;28;20201;-67
2023/05/10 10:47:32;;;;;;;1.10;1.10;;;;;22.90;95888.00;;;;8313011;28;20208;-67
2023/05/10 10:51:39;;;;;;;4.43;2.00;;;;;22.60;95890.00;;;;8322166;28;20224;-67
2023/05/10 10:55:50;;;;;;;3.15;1.10;;;;;22.40;95888.00;;;;8319342;28;20309;-67
2023/05/10 11:00:23;;;;;;;1.10;1.10;;;;;22.10;95885.00;;;;8323512;28;20217;-70
2023/05/10 11:04:26;;;;;;;2.28;1.40;;;;;22.20;95888.00;;;;8313466;28;20232;-70
2023/05/10 11:08:32;;;;;;;1.70;1.20;;;;;22.10;95880.00;;;;8320505;28;20201;-68
2023/05/10 11:12:52;;;;;;;1.00;1.00;;;;;22.40;95884.00;;;;8314922;28;20222;-69
2023/05/10 11:16:55;;;;;;;1.10;1.10;;;;;22.40;95882.00;;;;8310834;28;20209;-69
2023/05/10 11:21:04;;;;;;;1.25;1.15;;;;;22.80;95883.00;;;;8316585;28;20209;-68
2023/05/10 11:25:13;;;;;;;1.25;1.25;;;;;22.90;95887.00;;;;8309938;28;20194;-68
2023/05/10 11:29:17;;;;;;;1.25;1.15;;;;;23.00;95890.00;;;;8316142;28;20197;-69
2023/05/10 11:33:21;;;;;;;1.10;1.10;;;;;23.50;95883.00;;;;8302456;28;20434;-70
2023/05/10 11:37:24;;;;;;;1.02;1.00;;;;;23.90;95877.00;;;;8315913;28;20252;-69
2023/05/10 11:41:30;;;;;;;1.20;1.20;;;;;24.30;95879.00;;;;8313204;28;20209;-68
2023/05/10 11:45:36;;;;;;;1.50;1.20;;;;;24.90;95882.00;;;;8312096;28;20203;-70
2023/05/10 11:49:44;;;;;;;1.20;1.20;;;;;26.20;95888.00;;;;8314810;28;20193;-68
2023/05/10 11:53:53;;;;;;;1.85;1.10;;;;;27.40;95883.00;;;;8308890;28;20221;-68
2023/05/10 11:58:12;;;;;;;1.50;1.23;;;;;27.10;95884.00;;;;8304414;28;20209;-70
2023/05/10 12:02:16;;;;;;;1.95;1.10;;;;;26.40;95883.00;;;;8311509;28;20233;-71
2023/05/10 12:06:20;;;;;;;1.20;1.20;;;;;25.10;95882.00;;;;8317215;28;20289;-69
2023/05/10 12:10:35;;;;;;;3.33;1.90;;;;;23.70;95891.00;;;;8313138;28;20654;-70
2023/05/10 12:14:42;;;;;;;2.17;1.40;;;;;22.40;95889.00;;;;8320017;28;20225;-68
2023/05/10 12:18:45;;;;;;;1.58;1.48;;;;;21.30;95900.00;;;;8315065;28;20205;-70
2023/05/10 12:22:56;;;;;;;3.25;1.67;;;;;20.10;95902.00;;;;8314033;28;20220;-68
2023/05/10 12:27:07;;;;;;;2.10;2.00;;;;;19.10;95907.00;;;;8311210;28;20618;-70
2023/05/10 12:31:14;;;;;;;2.28;2.08;;;;;18.30;95908.00;;;;8320402;28;20239;-71
2023/05/10 12:35:23;;;;;;;3.33;2.15;;;;;17.80;95905.00;;;;8323582;28;20263;-72
2023/05/10 12:39:26;;;;;;;2.40;2.22;;;;;17.80;95911.00;;;;8320311;28;20251;-72
2023/05/10 12:43:31;;;;;;;2.25;2.10;;;;;17.80;95914.00;;;;8307604;28;20197;-76
2023/05/10 12:47:39;;;;;;;3.55;2.08;;;;;17.90;95916.00;;;;8319405;28;20591;-69
2023/05/10 12:51:45;;;;;;;2.67;2.33;;;;;18.00;95910.00;;;;8314010;28;20206;-72
2023/05/10 12:55:48;;;;;;;4.78;2.30;;;;;18.00;95904.00;;;;8310561;28;20233;-69
2023/05/10 12:59:53;;;;;;;4.88;2.10;;;;;17.80;95904.00;;;;8315187;28;20200;-70
2023/05/10 13:04:00;;;;;;;4.63;2.25;;;;;17.90;95900.00;;;;8320060;28;20237;-71
2023/05/10 13:08:06;;;;;;;4.47;3.10;;;;;18.30;95914.00;;;;8334235;28;20201;-70
2023/05/10 13:12:09;;;;;;;2.22;2.13;;;;;18.80;95916.00;;;;8318590;28;20253;-72
2023/05/10 13:16:16;;;;;;;2.75;2.00;;;;;19.00;95913.00;;;;8326360;28;20256;-71
2023/05/10 13:20:22;;;;;;;2.80;2.15;;;;;19.30;95909.00;;;;8318325;28;20215;-71
2023/05/10 13:24:25;;;;;;;2.40;1.90;;;;;19.70;95905.00;;;;8320703;28;20544;-71
2023/05/10 13:28:32;;;;;;;1.83;1.77;;;;;20.00;95907.00;;;;8319916;28;20205;-70
2023/05/10 13:32:35;;;;;;;1.90;1.80;;;;;20.00;95906.00;;;;8312937;28;20231;-70
2023/05/10 13:36:44;;;;;;;5.15;2.15;;;;;19.50;95905.00;;;;8316161;28;20213;-72
2023/05/10 13:40:48;;;;;;;5.20;2.22;;;;;19.20;95903.00;;;;8318639;28;20284;-70
2023/05/10 13:44:51;;;;;;;2.63;1.95;;;;;19.20;95901.00;;;;8319998;28;20208;-71
2023/05/10 13:48:54;;;;;;;3.03;2.00;;;;;19.60;95898.00;;;;8316791;28;20287;-70
2023/05/10 13:53:05;;;;;;;2.08;1.98;;;;;19.80;95899.00;;;;8321220;28;20241;-69
2023/05/10 13:57:08;;;;;;;2.40;1.80;;;;;20.10;95898.00;;;;8321943;28;20206;-73
2023/05/10 14:01:16;;;;;;;3.63;2.10;;;;;20.20;95905.00;;;;8319258;28;20586;-72
2023/05/10 14:05:23;;;;;;;4.15;2.00;;;;;20.10;95891.00;;;;8316920;28;20217;-71
2023/05/10 14:09:34;;;;;;;3.15;1.90;;;;;20.00;95891.00;;;;8308835;28;20972;-74
2023/05/10 14:13:37;;;;;;;2.92;1.80;;;;;20.10;95896.00;;;;8306606;28;20440;-70
2023/05/10 14:17:40;;;;;;;3.53;1.92;;;;;20.80;95896.00;;;;8311115;28;21994;-70
2023/05/10 14:21:44;;;;;;;2.35;2.15;;;;;20.50;95891.00;;;;8314190;28;20190;-75
2023/05/10 14:25:48;;;;;;;6.07;2.17;;;;;20.20;95889.00;;;;8311303;28;20213;-73
2023/05/10 14:29:53;;;;;;;2.50;1.70;;;;;20.30;95892.00;;;;8315890;28;20213;-75
2023/05/10 14:33:59;;;;;;;3.03;1.63;;;;;20.30;95898.00;;;;8315459;28;20985;-79
2023/05/10 14:38:03;;;;;;;1.63;1.60;;;;;20.20;95896.00;;;;8309495;28;20206;-71
2023/05/10 14:42:09;;;;;;;3.15;1.92;;;;;20.00;95899.00;;;;8323099;28;20838;-74
2023/05/10 14:46:12;;;;;;;2.05;1.80;;;;;19.40;95904.00;;;;8318923;28;20272;-71
2023/05/10 14:50:16;;;;;;;2.10;2.00;;;;;18.80;95901.00;;;;8309234;28;20201;-70
2023/05/10 14:54:38;;;;;;;2.75;2.00;;;;;18.20;95900.00;;;;8305387;28;20219;-77
2023/05/10 14:58:47;;;;;;;5.03;2.45;;;;;17.50;95900.00;;;;8313855;28;20624;-77
2023/05/10 15:02:50;;;;;;;4.65;3.10;;;;;16.50;95898.00;;;;8320053;28;20224;-74
2023/05/10 15:06:58;;;;;;;3.35;2.45;;;;;15.90;95911.00;;;;8317750;28;20201;-83
2023/05/10 15:11:04;;;;;;;20.63;8.02;;;;;15.50;95917.00;;;;8322045;28;20711;-77
2023/05/10 15:15:15;;;;;;;4.95;3.40;;;;;15.40;95929.00;;;;8322826;28;20641;-74
2023/05/10 15:19:27;;;;;;;5.50;3.13;;;;;15.10;95938.00;;;;8303146;28;20236;-71
2023/05/10 15:23:30;;;;;;;4.40;3.97;;;;;14.90;95936.00;;;;8302783;28;20233;-72
2023/05/10 15:27:35;;;;;;;13.23;8.63;;;;;14.90;95938.00;;;;8295872;28;20198;-71
2023/05/10 15:31:40;;;;;;;7.40;5.45;;;;;14.90;95935.00;;;;8308933;28;20417;-73
2023/05/10 15:35:46;;;;;;;6.35;4.22;;;;;14.90;95945.00;;;;8315356;28;20591;-74
2023/05/10 15:39:51;;;;;;;4.07;3.70;;;;;14.90;95938.00;;;;8310732;28;20216;-74
2023/05/10 15:43:55;;;;;;;3.83;3.20;;;;;14.90;95946.00;;;;8309907;28;20784;-74
2023/05/10 15:48:00;;;;;;;6.05;2.95;;;;;14.70;95950.00;;;;8310111;28;20612;-74
2023/05/10 15:52:03;;;;;;;7.78;3.50;;;;;14.40;95947.00;;;;8312237;28;20216;-74
2023/05/10 15:56:07;;;;;;;7.65;4.40;;;;;14.20;95957.00;;;;8299398;28;20223;-71
2023/05/10 16:00:15;;;;;;;7.00;3.25;;;;;14.10;95960.00;;;;8308384;28;20209;-68
2023/05/10 16:04:23;;;;;;;5.13;4.13;;;;;14.10;95956.00;;;;8308809;28;20532;-72
2023/05/10 16:08:29;;;;;;;4.57;2.75;;;;;14.00;95952.00;;;;8305876;28;20199;-70
2023/05/10 16:12:36;;;;;;;6.30;3.00;;;;;14.00;95955.00;;;;8316527;28;20196;-74
2023/05/10 16:16:40;;;;;;;8.52;3.53;;;;;14.10;95951.00;;;;8309547;28;20243;-77
2023/05/10 16:20:44;;;;;;;5.22;3.05;;;;;14.20;95949.00;;;;8314010;28;21007;-76
2023/05/10 16:24:52;;;;;;;4.18;2.90;;;;;14.10;95948.00;;;;8329758;28;20640;-76
2023/05/10 16:28:57;;;;;;;3.88;3.20;;;;;14.20;95945.00;;;;8318973;28;20231;-78
2023/05/10 16:33:01;;;;;;;10.82;9.60;;;;;14.30;95949.00;;;;8321900;28;20212;-77
2023/05/10 16:37:05;;;;;;;26.75;24.15;;;;;14.40;95951.00;;;;8320719;28;20735;-79
2023/05/10 16:41:11;;;;;;;8.52;5.40;;;;;14.50;95955.00;;;;8318252;28;20205;-78
2023/05/10 16:45:15;;;;;;;9.55;8.60;;;;;14.60;95954.00;;;;8340706;28;20201;-78
2023/05/10 16:49:18;;;;;;;28.15;22.10;;;;;14.60;95957.00;;;;8327989;28;20238;-73
2023/05/10 16:53:23;;;;;;;8.02;5.47;;;;;14.60;95961.00;;;;8329260;28;20563;-75
2023/05/10 16:57:26;;;;;;;6.57;4.72;;;;;14.60;95958.00;;;;8338927;28;20224;-74
2023/05/10 17:01:34;;;;;;;8.05;4.65;;;;;14.70;95964.00;;;;8327541;28;20234;-74
2023/05/10 17:05:37;;;;;;;6.32;4.97;;;;;14.70;95976.00;;;;8325309;28;20717;-74
2023/05/10 17:09:42;;;;;;;9.00;4.90;;;;;14.60;95977.00;;;;8317846;28;20216;-76
2023/05/10 17:13:47;;;;;;;12.25;6.95;;;;;14.50;95984.00;;;;8316202;28;20663;-75
2023/05/10 17:17:54;;;;;;;9.00;6.38;;;;;14.40;95993.00;;;;8292245;28;20249;-76
2023/05/10 17:21:57;;;;;;;7.78;4.72;;;;;14.50;95997.00;;;;8317451;28;20696;-75
2023/05/10 17:26:04;;;;;;;10.85;4.93;;;;;14.40;95991.00;;;;8309960;28;20937;-79
2023/05/10 17:30:09;;;;;;;16.65;11.95;;;;;14.30;95989.00;;;;8316047;28;20216;-76
2023/05/10 17:34:13;;;;;;;10.60;5.50;;;;;14.30;95993.00;;;;8312617;28;20662;-77
2023/05/10 17:38:16;;;;;;;8.65;5.28;;;;;14.30;95997.00;;;;8310703;28;20257;-76
2023/05/10 17:42:21;;;;;;;4.90;4.35;;;;;14.30;95993.00;;;;8306943;28;20209;-76
2023/05/10 17:46:27;;;;;;;5.38;4.05;;;;;14.10;96001.00;;;;8284936;28;20198;-75
2023/05/10 17:50:31;;;;;;;6.65;4.35;;;;;14.10;96001.00;;;;8292944;28;20362;-75
2023/05/10 17:54:34;;;;;;;3.60;3.30;;;;;14.10;96011.00;;;;8298724;28;20198;-75
2023/05/10 17:58:40;;;;;;;9.50;3.67;;;;;14.00;96010.00;;;;8313661;28;20267;-72
2023/05/10 18:02:45;;;;;;;5.97;3.97;;;;;14.00;96014.00;;;;8311128;28;21070;-72
2023/05/10 18:06:49;;;;;;;6.22;3.90;;;;;13.90;96023.00;;;;8308675;28;20196;-71
2023/05/10 18:10:53;;;;;;;8.93;4.10;;;;;13.90;96023.00;;;;8314126;28;20217;-71
2023/05/10 18:14:59;;;;;;;5.78;4.18;;;;;13.80;96021.00;;;;8306856;28;20932;-73
2023/05/10 18:24:22;;;;;;;7.90;4.63;;;;;13.50;96026.00;;;;8297453;28;20208;-79
2023/05/10 18:29:01;;;;;;;7.28;4.65;;;;;13.50;96027.00;;;;8289342;28;20489;-76
2023/05/10 18:33:15;;;;;;;7.30;4.30;;;;;13.40;96034.00;;;;8282341;28;20798;-73
2023/05/10 18:37:20;;;;;;;9.32;4.95;;;;;13.40;96036.00;;;;8305800;28;20233;-79
2023/05/10 18:41:51;;;;;;;10.13;5.30;;;;;13.40;96036.00;;;;8287151;28;20232;-79
2023/05/10 18:51:13;;;;;;;11.05;5.35;;;;;13.40;96047.00;;;;8304686;28;20293;-77
2023/05/10 18:55:19;;;;;;;9.85;5.85;;;;;13.40;96045.00;;;;8317070;28;20239;-74
2023/05/10 18:59:30;;;;;;;7.97;5.00;;;;;13.40;96053.00;;;;8286478;28;20232;-74
2023/05/10 19:03:35;;;;;;;6.15;4.80;;;;;13.30;96056.00;;;;8288905;28;20699;-73
2023/05/10 19:07:45;;;;;;;10.32;5.10;;;;;13.30;96056.00;;;;8307140;28;20201;-73
2023/05/10 19:11:52;;;;;;;8.48;5.75;;;;;13.30;96065.00;;;;8283280;28;20228;-74
2023/05/10 19:16:11;;;;;;;13.73;5.50;;;;;13.20;96067.00;;;;8285269;28;20254;-74
2023/05/10 19:20:16;;;;;;;7.47;5.68;;;;;13.20;96073.00;;;;8305071;28;20239;-75
2023/05/10 19:24:24;;;;;;;15.35;5.53;;;;;13.20;96067.00;;;;8279105;28;20205;-74
2023/05/10 19:28:28;;;;;;;13.55;6.10;;;;;13.20;96071.00;;;;8305452;28;20246;-74
2023/05/10 19:32:31;;;;;;;10.55;5.72;;;;;13.20;96075.00;;;;8293734;28;20248;-74
2023/05/10 19:36:34;;;;;;;11.95;5.80;;;;;13.20;96078.00;;;;8307555;28;20832;-74
2023/05/10 19:40:39;;;;;;;13.02;5.90;;;;;13.20;96073.00;;;;8294550;28;20212;-74
2023/05/10 19:44:44;;;;;;;9.85;5.10;;;;;13.20;96078.00;;;;8317190;28;20205;-76
2023/05/10 19:48:47;;;;;;;9.73;5.15;;;;;13.20;96074.00;;;;8325574;28;20200;-75
2023/05/10 19:52:51;;;;;;;8.35;4.85;;;;;13.10;96074.00;;;;8342195;28;20670;-74
2023/05/10 19:56:55;;;;;;;9.98;5.32;;;;;13.10;96071.00;;;;8317856;28;20232;-74
2023/05/10 20:01:01;;;;;;;7.47;4.70;;;;;13.00;96070.00;;;;8318117;28;20650;-74
2023/05/10 20:05:08;;;;;;;9.48;4.88;;;;;13.00;96074.00;;;;8287609;28;20328;-75
2023/05/10 20:09:13;;;;;;;6.70;4.22;;;;;13.00;96074.00;;;;8328585;28;20202;-74
2023/05/10 20:13:17;;;;;;;11.07;4.68;;;;;13.00;96078.00;;;;8326591;28;20232;-74
2023/05/10 20:17:23;;;;;;;9.02;4.93;;;;;13.00;96080.00;;;;8325006;28;20254;-73
2023/05/10 20:21:32;;;;;;;8.18;5.18;;;;;13.00;96079.00;;;;8324637;28;20201;-73
2023/05/10 21:01:32;;;;;;;9.93;6.10;;;;;12.90;96073.00;;;;8441579;27;20709;-74
2023/05/10 21:11:39;;;;;;;10.20;6.10;;;;;12.90;96063.00;;;;8427597;28;20311;-74
2023/05/10 21:16:33;;;;;;;9.15;5.88;;;;;12.90;96059.00;;;;8426226;28;20698;-74
2023/05/10 21:25:52;;;;;;;12.98;6.55;;;;;12.90;96063.00;;;;8437842;28;20696;-77
2023/05/10 21:29:55;;;;;;;11.40;5.80;;;;;12.90;96051.00;;;;8447209;28;20222;-76